sensor_id;sensor_type;location;lat;lon;timestamp;temperature;humidity
420;DHT22;42600;54.408;13.016;2023-09-18T00:01:02;18.60;92.70
420;DHT22;42600;54.408;13.016;2023-09-18T00:03:29;18.60;92.70
420;DHT22;42600;54.408;13.016;2023-09-18T00:05:56;18.60;92.70
420;DHT22;42600;54.408;13.016;2023-09-18T00:08:22;18.60;92.70
420;DHT22;42600;54.408;13.016;2023-09-18T00:10:51;18.60;92.70
420;DHT22;42600;54.408;13.016;2023-09-18T00:13:20;18.60;92.70
420;DHT22;42600;54.408;13.016;2023-09-18T00:15:46;18.60;92.70
420;DHT22;42600;54.408;13.016;2023-09-18T00:18:14;18.60;92.70
420;DHT22;42600;54.408;13.016;2023-09-18T00:20:41;18.60;92.70
420;DHT22;42600;54.408;13.016;2023-09-18T00:23:08;18.60;92.70
420;DHT22;42600;54.408;13.016;2023-09-18T00:25:35;18.60;92.70
420;DHT22;42600;54.408;13.016;2023-09-18T00:28:03;18.60;92.70
420;DHT22;42600;54.408;13.016;2023-09-18T00:30:31;18.60;92.70
420;DHT22;42600;54.408;13.016;2023-09-18T00:32:57;18.60;92.70
420;DHT22;42600;54.408;13.016;2023-09-18T00:35:24;18.60;92.70
420;DHT22;42600;54.408;13.016;2023-09-18T00:37:51;18.60;92.70
420;DHT22;42600;54.408;13.016;2023-09-18T00:40:18;18.60;92.70
420;DHT22;42600;54.408;13.016;2023-09-18T00:42:45;18.60;92.70
420;DHT22;42600;54.408;13.016;2023-09-18T00:45:12;18.60;92.70
420;DHT22;42600;54.408;13.016;2023-09-18T00:47:40;18.60;92.70
420;DHT22;42600;54.408;13.016;2023-09-18T00:50:08;18.60;92.70
420;DHT22;42600;54.408;13.016;2023-09-18T00:52:38;18.60;92.70
420;DHT22;42600;54.408;13.016;2023-09-18T00:55:06;18.60;92.70
420;DHT22;42600;54.408;13.016;2023-09-18T00:57:33;18.60;92.70
420;DHT22;42600;54.408;13.016;2023-09-18T01:00:01;18.60;92.70
420;DHT22;42600;54.408;13.016;2023-09-18T01:02:29;18.60;92.70
420;DHT22;42600;54.408;13.016;2023-09-18T01:04:57;18.60;92.70
420;DHT22;42600;54.408;13.016;2023-09-18T01:07:24;18.60;92.70
420;DHT22;42600;54.408;13.016;2023-09-18T01:09:52;18.60;92.70
420;DHT22;42600;54.408;13.016;2023-09-18T01:12:25;18.60;92.70
420;DHT22;42600;54.408;13.016;2023-09-18T01:14:59;18.70;92.70
420;DHT22;42600;54.408;13.016;2023-09-18T01:17:29;18.60;92.70
420;DHT22;42600;54.408;13.016;2023-09-18T01:19:58;18.70;92.70
420;DHT22;42600;54.408;13.016;2023-09-18T01:22:24;18.60;92.70
420;DHT22;42600;54.408;13.016;2023-09-18T01:24:52;18.60;92.70
420;DHT22;42600;54.408;13.016;2023-09-18T01:27:19;18.60;92.70
420;DHT22;42600;54.408;13.016;2023-09-18T01:29:46;18.70;92.70
420;DHT22;42600;54.408;13.016;2023-09-18T01:32:13;18.70;92.70
420;DHT22;42600;54.408;13.016;2023-09-18T01:34:46;18.70;92.70
420;DHT22;42600;54.408;13.016;2023-09-18T01:37:15;18.70;92.70
420;DHT22;42600;54.408;13.016;2023-09-18T01:39:42;18.70;92.70
420;DHT22;42600;54.408;13.016;2023-09-18T01:42:11;18.70;92.70
420;DHT22;42600;54.408;13.016;2023-09-18T01:44:38;18.70;92.70
420;DHT22;42600;54.408;13.016;2023-09-18T01:47:08;18.70;92.70
420;DHT22;42600;54.408;13.016;2023-09-18T01:49:36;18.70;92.70
420;DHT22;42600;54.408;13.016;2023-09-18T01:52:05;18.70;92.70
420;DHT22;42600;54.408;13.016;2023-09-18T01:54:32;18.70;92.70
420;DHT22;42600;54.408;13.016;2023-09-18T01:56:59;18.70;92.70
420;DHT22;42600;54.408;13.016;2023-09-18T01:59:27;18.70;92.70
420;DHT22;42600;54.408;13.016;2023-09-18T02:01:54;18.70;92.70
420;DHT22;42600;54.408;13.016;2023-09-18T02:04:21;18.70;92.70
420;DHT22;42600;54.408;13.016;2023-09-18T02:06:50;18.70;92.70
420;DHT22;42600;54.408;13.016;2023-09-18T02:09:17;18.70;92.70
420;DHT22;42600;54.408;13.016;2023-09-18T02:11:46;18.70;92.70
420;DHT22;42600;54.408;13.016;2023-09-18T02:14:13;18.70;92.70
420;DHT22;42600;54.408;13.016;2023-09-18T02:16:42;18.70;92.70
420;DHT22;42600;54.408;13.016;2023-09-18T02:19:10;18.70;92.70
420;DHT22;42600;54.408;13.016;2023-09-18T02:21:37;18.70;92.70
420;DHT22;42600;54.408;13.016;2023-09-18T02:24:04;18.70;92.70
420;DHT22;42600;54.408;13.016;2023-09-18T02:26:31;18.70;92.70
420;DHT22;42600;54.408;13.016;2023-09-18T02:28:59;18.70;92.70
420;DHT22;42600;54.408;13.016;2023-09-18T02:31:25;18.70;92.70
420;DHT22;42600;54.408;13.016;2023-09-18T02:33:53;18.70;92.70
420;DHT22;42600;54.408;13.016;2023-09-18T02:36:20;18.70;92.70
420;DHT22;42600;54.408;13.016;2023-09-18T02:38:47;18.70;92.70
420;DHT22;42600;54.408;13.016;2023-09-18T02:41:13;18.70;92.70
420;DHT22;42600;54.408;13.016;2023-09-18T02:43:40;18.70;92.70
420;DHT22;42600;54.408;13.016;2023-09-18T02:46:08;18.70;92.70
420;DHT22;42600;54.408;13.016;2023-09-18T02:48:34;18.70;92.70
420;DHT22;42600;54.408;13.016;2023-09-18T02:51:02;18.70;92.70
420;DHT22;42600;54.408;13.016;2023-09-18T02:53:29;18.70;92.70
420;DHT22;42600;54.408;13.016;2023-09-18T02:55:57;18.70;92.70
420;DHT22;42600;54.408;13.016;2023-09-18T02:58:24;18.70;92.70
420;DHT22;42600;54.408;13.016;2023-09-18T03:00:52;18.80;92.70
420;DHT22;42600;54.408;13.016;2023-09-18T03:03:19;18.80;92.70
420;DHT22;42600;54.408;13.016;2023-09-18T03:05:46;18.80;92.70
420;DHT22;42600;54.408;13.016;2023-09-18T03:08:15;18.70;92.70
420;DHT22;42600;54.408;13.016;2023-09-18T03:10:42;18.80;92.70
420;DHT22;42600;54.408;13.016;2023-09-18T03:13:10;18.80;92.70
420;DHT22;42600;54.408;13.016;2023-09-18T03:15:38;18.80;92.70
420;DHT22;42600;54.408;13.016;2023-09-18T03:18:06;18.80;92.70
420;DHT22;42600;54.408;13.016;2023-09-18T03:20:33;18.80;92.70
420;DHT22;42600;54.408;13.016;2023-09-18T03:23:01;18.80;92.70
420;DHT22;42600;54.408;13.016;2023-09-18T03:25:29;18.70;92.70
420;DHT22;42600;54.408;13.016;2023-09-18T03:27:57;18.70;92.70
420;DHT22;42600;54.408;13.016;2023-09-18T03:30:24;18.80;92.70
420;DHT22;42600;54.408;13.016;2023-09-18T03:32:51;18.80;92.70
420;DHT22;42600;54.408;13.016;2023-09-18T03:35:19;18.70;92.70
420;DHT22;42600;54.408;13.016;2023-09-18T03:37:46;18.70;92.70
420;DHT22;42600;54.408;13.016;2023-09-18T03:40:13;18.70;92.70
420;DHT22;42600;54.408;13.016;2023-09-18T03:42:41;18.80;92.70
420;DHT22;42600;54.408;13.016;2023-09-18T03:45:08;18.70;92.70
420;DHT22;42600;54.408;13.016;2023-09-18T03:47:37;18.70;92.70
420;DHT22;42600;54.408;13.016;2023-09-18T03:50:05;18.70;92.70
420;DHT22;42600;54.408;13.016;2023-09-18T03:52:32;18.70;92.70
420;DHT22;42600;54.408;13.016;2023-09-18T03:54:58;18.70;92.70
420;DHT22;42600;54.408;13.016;2023-09-18T03:57:25;18.70;92.70
420;DHT22;42600;54.408;13.016;2023-09-18T03:59:53;18.70;92.70
420;DHT22;42600;54.408;13.016;2023-09-18T04:02:21;18.70;92.70
420;DHT22;42600;54.408;13.016;2023-09-18T04:04:47;18.70;92.70
420;DHT22;42600;54.408;13.016;2023-09-18T04:07:14;18.70;92.70
420;DHT22;42600;54.408;13.016;2023-09-18T04:09:42;18.70;92.70
420;DHT22;42600;54.408;13.016;2023-09-18T04:12:08;18.70;92.70
420;DHT22;42600;54.408;13.016;2023-09-18T04:14:35;18.70;92.70
420;DHT22;42600;54.408;13.016;2023-09-18T04:17:03;18.70;92.70
420;DHT22;42600;54.408;13.016;2023-09-18T04:19:30;18.70;92.70
420;DHT22;42600;54.408;13.016;2023-09-18T04:21:57;18.70;92.70
420;DHT22;42600;54.408;13.016;2023-09-18T04:24:25;18.60;92.70
420;DHT22;42600;54.408;13.016;2023-09-18T04:26:52;18.60;92.70
420;DHT22;42600;54.408;13.016;2023-09-18T04:29:19;18.60;92.70
420;DHT22;42600;54.408;13.016;2023-09-18T04:31:45;18.60;92.70
420;DHT22;42600;54.408;13.016;2023-09-18T04:34:13;18.60;92.70
420;DHT22;42600;54.408;13.016;2023-09-18T04:36:40;18.60;92.70
420;DHT22;42600;54.408;13.016;2023-09-18T04:39:09;18.60;92.70
420;DHT22;42600;54.408;13.016;2023-09-18T04:41:35;18.60;92.70
420;DHT22;42600;54.408;13.016;2023-09-18T04:44:02;18.60;92.70
420;DHT22;42600;54.408;13.016;2023-09-18T04:46:30;18.60;92.70
420;DHT22;42600;54.408;13.016;2023-09-18T04:48:56;18.60;92.70
420;DHT22;42600;54.408;13.016;2023-09-18T04:51:24;18.60;92.70
420;DHT22;42600;54.408;13.016;2023-09-18T04:53:51;18.60;92.70
420;DHT22;42600;54.408;13.016;2023-09-18T04:56:18;18.60;92.70
420;DHT22;42600;54.408;13.016;2023-09-18T04:58:45;18.60;92.70
420;DHT22;42600;54.408;13.016;2023-09-18T05:01:12;18.60;92.70
420;DHT22;42600;54.408;13.016;2023-09-18T05:03:38;18.60;92.70
420;DHT22;42600;54.408;13.016;2023-09-18T05:06:06;18.60;92.70
420;DHT22;42600;54.408;13.016;2023-09-18T05:08:34;18.70;92.70
420;DHT22;42600;54.408;13.016;2023-09-18T05:11:00;18.70;92.70
420;DHT22;42600;54.408;13.016;2023-09-18T05:13:27;18.70;92.70
420;DHT22;42600;54.408;13.016;2023-09-18T05:15:53;18.70;92.70
420;DHT22;42600;54.408;13.016;2023-09-18T05:18:20;18.70;92.70
420;DHT22;42600;54.408;13.016;2023-09-18T05:20:47;18.70;92.70
420;DHT22;42600;54.408;13.016;2023-09-18T05:23:13;18.70;92.70
420;DHT22;42600;54.408;13.016;2023-09-18T05:25:41;18.70;92.70
420;DHT22;42600;54.408;13.016;2023-09-18T05:28:09;18.70;92.70
420;DHT22;42600;54.408;13.016;2023-09-18T05:30:36;18.80;92.70
420;DHT22;42600;54.408;13.016;2023-09-18T05:33:05;18.80;92.70
420;DHT22;42600;54.408;13.016;2023-09-18T05:35:33;18.80;92.70
420;DHT22;42600;54.408;13.016;2023-09-18T05:37:59;18.90;92.70
420;DHT22;42600;54.408;13.016;2023-09-18T05:40:26;19.00;92.70
420;DHT22;42600;54.408;13.016;2023-09-18T05:42:55;19.10;92.70
420;DHT22;42600;54.408;13.016;2023-09-18T05:45:22;19.10;92.70
420;DHT22;42600;54.408;13.016;2023-09-18T05:47:49;19.20;92.70
420;DHT22;42600;54.408;13.016;2023-09-18T05:50:16;19.30;92.70
420;DHT22;42600;54.408;13.016;2023-09-18T05:52:44;19.30;92.70
420;DHT22;42600;54.408;13.016;2023-09-18T05:55:11;19.30;92.70
420;DHT22;42600;54.408;13.016;2023-09-18T05:57:38;19.40;92.70
420;DHT22;42600;54.408;13.016;2023-09-18T06:00:07;19.40;92.70
420;DHT22;42600;54.408;13.016;2023-09-18T06:02:38;19.50;92.70
420;DHT22;42600;54.408;13.016;2023-09-18T06:05:05;19.50;92.70
420;DHT22;42600;54.408;13.016;2023-09-18T06:07:32;19.60;92.70
420;DHT22;42600;54.408;13.016;2023-09-18T06:09:59;19.60;92.70
420;DHT22;42600;54.408;13.016;2023-09-18T06:12:25;19.70;92.70
420;DHT22;42600;54.408;13.016;2023-09-18T06:14:52;19.70;92.70
420;DHT22;42600;54.408;13.016;2023-09-18T06:17:20;19.70;92.70
420;DHT22;42600;54.408;13.016;2023-09-18T06:19:47;19.70;92.70
420;DHT22;42600;54.408;13.016;2023-09-18T06:22:14;19.80;92.70
420;DHT22;42600;54.408;13.016;2023-09-18T06:24:41;19.90;92.70
420;DHT22;42600;54.408;13.016;2023-09-18T06:27:07;20.00;92.70
420;DHT22;42600;54.408;13.016;2023-09-18T06:29:34;20.00;92.70
420;DHT22;42600;54.408;13.016;2023-09-18T06:32:03;20.10;92.70
420;DHT22;42600;54.408;13.016;2023-09-18T06:34:31;20.10;92.70
420;DHT22;42600;54.408;13.016;2023-09-18T06:36:58;20.10;92.70
420;DHT22;42600;54.408;13.016;2023-09-18T06:39:24;20.10;92.70
420;DHT22;42600;54.408;13.016;2023-09-18T06:41:51;20.20;92.70
420;DHT22;42600;54.408;13.016;2023-09-18T06:44:18;20.10;92.70
420;DHT22;42600;54.408;13.016;2023-09-18T06:46:44;20.10;92.70
420;DHT22;42600;54.408;13.016;2023-09-18T06:49:11;20.20;92.70
420;DHT22;42600;54.408;13.016;2023-09-18T06:51:39;20.30;92.70
420;DHT22;42600;54.408;13.016;2023-09-18T06:54:05;20.30;92.70
420;DHT22;42600;54.408;13.016;2023-09-18T06:56:32;20.30;92.70
420;DHT22;42600;54.408;13.016;2023-09-18T06:58:58;20.40;92.70
420;DHT22;42600;54.408;13.016;2023-09-18T07:01:25;20.40;92.70
420;DHT22;42600;54.408;13.016;2023-09-18T07:03:53;20.50;92.70
420;DHT22;42600;54.408;13.016;2023-09-18T07:06:21;20.60;92.70
420;DHT22;42600;54.408;13.016;2023-09-18T07:08:49;20.70;92.70
420;DHT22;42600;54.408;13.016;2023-09-18T07:11:16;20.90;92.70
420;DHT22;42600;54.408;13.016;2023-09-18T07:13:43;20.80;92.70
420;DHT22;42600;54.408;13.016;2023-09-18T07:16:10;20.80;92.70
420;DHT22;42600;54.408;13.016;2023-09-18T07:18:37;20.90;92.70
420;DHT22;42600;54.408;13.016;2023-09-18T07:21:03;20.90;92.70
420;DHT22;42600;54.408;13.016;2023-09-18T07:23:30;21.00;92.70
420;DHT22;42600;54.408;13.016;2023-09-18T07:25:58;21.10;92.70
420;DHT22;42600;54.408;13.016;2023-09-18T07:28:24;21.10;92.70
420;DHT22;42600;54.408;13.016;2023-09-18T07:30:51;21.10;92.70
420;DHT22;42600;54.408;13.016;2023-09-18T07:33:18;21.10;92.70
420;DHT22;42600;54.408;13.016;2023-09-18T07:35:46;21.00;92.70
420;DHT22;42600;54.408;13.016;2023-09-18T07:38:13;21.00;92.70
420;DHT22;42600;54.408;13.016;2023-09-18T07:40:40;21.10;92.70
420;DHT22;42600;54.408;13.016;2023-09-18T07:43:08;21.10;92.50
420;DHT22;42600;54.408;13.016;2023-09-18T07:45:35;21.10;92.20
420;DHT22;42600;54.408;13.016;2023-09-18T07:48:01;21.20;92.20
420;DHT22;42600;54.408;13.016;2023-09-18T07:50:28;21.20;92.40
420;DHT22;42600;54.408;13.016;2023-09-18T07:52:57;21.30;92.40
420;DHT22;42600;54.408;13.016;2023-09-18T07:55:23;21.40;92.10
420;DHT22;42600;54.408;13.016;2023-09-18T07:57:51;21.50;91.20
420;DHT22;42600;54.408;13.016;2023-09-18T08:00:19;21.50;91.50
420;DHT22;42600;54.408;13.016;2023-09-18T08:02:48;21.60;91.50
420;DHT22;42600;54.408;13.016;2023-09-18T08:05:15;21.60;91.20
420;DHT22;42600;54.408;13.016;2023-09-18T08:07:42;21.60;90.70
420;DHT22;42600;54.408;13.016;2023-09-18T08:10:09;21.80;89.70
420;DHT22;42600;54.408;13.016;2023-09-18T08:12:38;21.90;90.40
420;DHT22;42600;54.408;13.016;2023-09-18T08:15:05;22.00;89.80
420;DHT22;42600;54.408;13.016;2023-09-18T08:17:33;22.00;89.00
420;DHT22;42600;54.408;13.016;2023-09-18T08:20:00;22.20;90.20
420;DHT22;42600;54.408;13.016;2023-09-18T08:22:27;22.30;90.20
420;DHT22;42600;54.408;13.016;2023-09-18T08:24:53;22.40;90.40
420;DHT22;42600;54.408;13.016;2023-09-18T08:27:20;22.50;90.60
420;DHT22;42600;54.408;13.016;2023-09-18T08:29:47;22.50;90.10
420;DHT22;42600;54.408;13.016;2023-09-18T08:32:13;22.60;90.50
420;DHT22;42600;54.408;13.016;2023-09-18T08:34:41;22.70;90.20
420;DHT22;42600;54.408;13.016;2023-09-18T08:37:08;22.70;89.00
420;DHT22;42600;54.408;13.016;2023-09-18T08:39:35;22.90;88.40
420;DHT22;42600;54.408;13.016;2023-09-18T08:42:04;22.90;88.60
420;DHT22;42600;54.408;13.016;2023-09-18T08:44:31;22.90;88.10
420;DHT22;42600;54.408;13.016;2023-09-18T08:46:58;22.90;85.80
420;DHT22;42600;54.408;13.016;2023-09-18T08:49:25;22.90;86.70
420;DHT22;42600;54.408;13.016;2023-09-18T08:51:55;23.00;86.30
420;DHT22;42600;54.408;13.016;2023-09-18T08:54:22;23.10;85.10
420;DHT22;42600;54.408;13.016;2023-09-18T08:56:49;23.20;85.40
420;DHT22;42600;54.408;13.016;2023-09-18T08:59:16;23.20;85.40
420;DHT22;42600;54.408;13.016;2023-09-18T09:01:43;23.20;85.40
